Date,TemperatureHighF,TemperatureAvgF,TemperatureLowF,DewpointHighF,DewpointAvgF,DewpointLowF,HumidityHigh,HumidityAvg,HumidityLow,PressureMaxIn,PressureMinIn,WindSpeedMaxMPH,WindSpeedAvgMPH,GustSpeedMaxMPH,PrecipitationSumIn
2013-4-1,80.8,64.0,53.1,61.4,54.7,40.6,99,77,28,29.77,29.66,4,1,0,0.58
2013-4-2,77.9,58.7,43.7,48.3,42.4,34.7,96,61,27,29.94,29.77,5,1,0,0.00
2013-4-3,65.3,56.2,48.0,45.1,35.6,29.0,76,47,32,30.03,29.88,7,1,0,0.00
2013-4-4,51.4,45.2,41.0,45.0,43.0,39.6,99,93,64,29.99,29.73,6,2,0,0.71
2013-4-5,60.1,47.4,38.5,47.7,42.7,38.2,99,85,62,29.83,29.68,5,2,0,0.00
2013-4-6,77.0,57.9,39.7,43.1,39.1,33.3,99,58,22,30.00,29.83,5,1,0,0.00
2013-4-7,80.4,61.1,45.5,54.7,49.0,41.7,99,68,38,30.05,29.89,4,1,0,0.00
2013-4-8,82.8,66.7,52.9,58.0,54.7,52.1,99,69,38,29.99,29.87,4,1,0,0.00
2013-4-9,86.9,69.6,55.8,63.4,58.4,55.5,99,72,39,30.01,29.90,4,1,0,0.00
2013-4-10,87.6,71.9,58.1,62.5,59.7,56.8,99,70,38,29.94,29.75,8,1,0,0.00
2013-4-11,84.6,70.6,61.2,68.6,65.5,60.3,99,85,57,29.77,29.54,4,1,0,0.06
2013-4-12,82.6,70.7,57.6,70.7,61.2,46.1,99,76,30,29.64,29.47,4,1,0,0.14
2013-4-13,83.3,64.0,46.8,45.5,43.2,38.9,88,50,23,29.80,29.63,4,1,0,0.00
2013-4-14,72.0,60.1,50.5,60.7,53.3,45.2,99,80,53,29.87,29.62,5,1,0,0.24
2013-4-15,77.0,66.4,59.9,64.1,61.4,59.3,99,85,61,29.94,29.72,3,1,0,0.00
2013-4-16,86.4,69.7,59.7,63.2,61.0,59.4,99,77,43,30.05,29.94,6,0,0,0.00
2013-4-17,88.2,69.3,57.0,63.5,60.2,56.4,98,76,43,30.01,29.88,3,0,0,0.00
2013-4-18,85.1,72.5,61.9,66.8,62.4,57.7,98,72,48,29.93,29.75,4,1,0,0.00
2013-4-19,84.7,69.6,51.4,69.9,65.1,50.6,98,87,57,29.78,29.60,6,2,0,0.36
2013-4-20,71.2,54.8,45.0,50.6,43.0,35.3,98,70,28,30.03,29.73,5,1,0,0.01
2013-4-21,73.0,57.1,42.8,44.5,42.2,37.4,99,63,32,30.15,30.04,7,2,0,0.00
2013-4-22,72.7,58.4,50.0,44.6,36.9,32.1,72,47,26,30.11,29.96,9,2,0,0.00
2013-4-23,78.6,60.0,47.7,52.3,46.2,36.8,83,62,36,30.02,29.89,6,1,0,0.00
2013-4-24,81.5,67.0,54.0,59.8,56.7,52.3,97,72,44,29.96,29.83,4,1,0,0.00
2013-4-25,83.1,71.6,55.4,61.5,53.4,41.2,92,56,24,30.03,29.88,5,1,0,0.00
2013-4-26,79.5,64.4,50.4,57.5,49.4,38.4,89,60,37,30.18,30.02,6,1,0,0.00
2013-4-27,71.1,61.3,54.0,58.4,53.8,48.4,96,77,59,30.14,29.99,4,1,0,0.25
2013-4-28,74.8,64.1,56.7,66.5,61.1,50.6,98,90,68,29.99,29.78,3,1,0,2.05
2013-4-29,73.9,65.5,60.3,67.5,63.1,59.4,99,92,74,29.85,29.72,2,0,0,0.79
2013-4-30,79.7,65.3,57.0,65.6,61.4,56.4,99,88,59,29.90,29.73,5,0,0,0.00